Terminal Aerodrome Forecast
Issued by NWS

Home | Current Version | Previous Version | Text Only | Print | Product List | Glossary On
Versions: 1 2 3 4 5 6 7 8 9 10 11 12 13 14 15 16 17
625
FTUS41 KBTV 130537
TAFRUT
TAF
KRUT 130537Z 1306/1406 12006KT P6SM VCSH BKN050
     FM131000 33004KT P6SM BKN060
     FM131300 31006KT P6SM BKN035
     FM131800 30010G18KT P6SM BKN040
      AMD LTD TO CLD VIS AND WIND=

USA.gov is the U.S. government's official web portal to all federal, state and local government web resources and services.